sensor_id;sensor_type;location;lat;lon;timestamp;temperature;humidity
19522;DHT22;9905;52.126;5.596;2023-02-05T00:00:23;7.70;99.90
19522;DHT22;9905;52.126;5.596;2023-02-05T00:02:49;7.70;99.90
19522;DHT22;9905;52.126;5.596;2023-02-05T00:05:16;7.70;99.90
19522;DHT22;9905;52.126;5.596;2023-02-05T00:07:44;7.70;99.90
19522;DHT22;9905;52.126;5.596;2023-02-05T00:10:11;7.70;99.90
19522;DHT22;9905;52.126;5.596;2023-02-05T00:12:38;7.70;99.90
19522;DHT22;9905;52.126;5.596;2023-02-05T00:15:06;7.70;99.90
19522;DHT22;9905;52.126;5.596;2023-02-05T00:17:34;7.80;99.90
19522;DHT22;9905;52.126;5.596;2023-02-05T00:20:01;7.80;99.90
19522;DHT22;9905;52.126;5.596;2023-02-05T00:22:28;7.80;99.90
19522;DHT22;9905;52.126;5.596;2023-02-05T00:24:56;7.70;99.90
19522;DHT22;9905;52.126;5.596;2023-02-05T00:27:22;7.70;99.90
19522;DHT22;9905;52.126;5.596;2023-02-05T00:29:49;7.70;99.90
19522;DHT22;9905;52.126;5.596;2023-02-05T00:32:16;7.70;99.90
19522;DHT22;9905;52.126;5.596;2023-02-05T00:34:43;7.80;99.90
19522;DHT22;9905;52.126;5.596;2023-02-05T00:37:09;7.80;99.90
19522;DHT22;9905;52.126;5.596;2023-02-05T00:39:36;7.70;99.90
19522;DHT22;9905;52.126;5.596;2023-02-05T00:42:04;7.70;99.90
19522;DHT22;9905;52.126;5.596;2023-02-05T00:44:31;7.70;99.90
19522;DHT22;9905;52.126;5.596;2023-02-05T00:46:58;7.70;99.90
19522;DHT22;9905;52.126;5.596;2023-02-05T00:49:25;7.70;99.90
19522;DHT22;9905;52.126;5.596;2023-02-05T00:51:52;7.80;99.90
19522;DHT22;9905;52.126;5.596;2023-02-05T00:54:18;7.70;99.90
19522;DHT22;9905;52.126;5.596;2023-02-05T00:56:45;7.80;99.90
19522;DHT22;9905;52.126;5.596;2023-02-05T00:59:13;7.80;99.90
19522;DHT22;9905;52.126;5.596;2023-02-05T01:01:40;7.80;99.90
19522;DHT22;9905;52.126;5.596;2023-02-05T01:04:07;7.80;99.90
19522;DHT22;9905;52.126;5.596;2023-02-05T01:06:33;7.80;99.90
19522;DHT22;9905;52.126;5.596;2023-02-05T01:09:00;7.80;99.90
19522;DHT22;9905;52.126;5.596;2023-02-05T01:11:27;7.80;99.90
19522;DHT22;9905;52.126;5.596;2023-02-05T01:13:54;7.80;99.90
19522;DHT22;9905;52.126;5.596;2023-02-05T01:16:22;7.80;99.90
19522;DHT22;9905;52.126;5.596;2023-02-05T01:18:48;7.70;99.90
19522;DHT22;9905;52.126;5.596;2023-02-05T01:21:15;7.70;99.90
19522;DHT22;9905;52.126;5.596;2023-02-05T01:23:42;7.80;99.90
19522;DHT22;9905;52.126;5.596;2023-02-05T01:26:09;7.70;99.90
19522;DHT22;9905;52.126;5.596;2023-02-05T01:28:35;7.70;99.90
19522;DHT22;9905;52.126;5.596;2023-02-05T01:31:02;7.70;99.90
19522;DHT22;9905;52.126;5.596;2023-02-05T01:33:30;7.80;99.90
19522;DHT22;9905;52.126;5.596;2023-02-05T01:35:57;7.80;99.90
19522;DHT22;9905;52.126;5.596;2023-02-05T01:38:24;7.80;99.90
19522;DHT22;9905;52.126;5.596;2023-02-05T01:40:51;7.80;99.90
19522;DHT22;9905;52.126;5.596;2023-02-05T01:43:18;7.80;99.90
19522;DHT22;9905;52.126;5.596;2023-02-05T01:46:05;7.80;99.90
19522;DHT22;9905;52.126;5.596;2023-02-05T01:48:37;7.80;99.90
19522;DHT22;9905;52.126;5.596;2023-02-05T01:51:08;7.70;99.90
19522;DHT22;9905;52.126;5.596;2023-02-05T01:53:37;7.80;99.90
19522;DHT22;9905;52.126;5.596;2023-02-05T01:56:07;7.70;99.90
19522;DHT22;9905;52.126;5.596;2023-02-05T01:58:38;7.70;99.90
19522;DHT22;9905;52.126;5.596;2023-02-05T02:01:06;7.70;99.90
19522;DHT22;9905;52.126;5.596;2023-02-05T02:03:35;7.70;99.90
19522;DHT22;9905;52.126;5.596;2023-02-05T02:06:02;7.70;99.90
19522;DHT22;9905;52.126;5.596;2023-02-05T02:08:30;7.80;99.90
19522;DHT22;9905;52.126;5.596;2023-02-05T02:10:57;7.70;99.90
19522;DHT22;9905;52.126;5.596;2023-02-05T02:13:27;7.80;99.90
19522;DHT22;9905;52.126;5.596;2023-02-05T02:15:56;7.70;99.90
19522;DHT22;9905;52.126;5.596;2023-02-05T02:18:23;7.70;99.90
19522;DHT22;9905;52.126;5.596;2023-02-05T02:21:05;7.70;99.90
19522;DHT22;9905;52.126;5.596;2023-02-05T02:23:44;7.70;99.90
19522;DHT22;9905;52.126;5.596;2023-02-05T02:26:47;7.70;99.90
19522;DHT22;9905;52.126;5.596;2023-02-05T02:29:23;7.70;99.90
19522;DHT22;9905;52.126;5.596;2023-02-05T02:31:58;7.70;99.90
19522;DHT22;9905;52.126;5.596;2023-02-05T02:34:30;7.70;99.90
19522;DHT22;9905;52.126;5.596;2023-02-05T02:37:03;7.70;99.90
19522;DHT22;9905;52.126;5.596;2023-02-05T02:39:36;7.70;99.90
19522;DHT22;9905;52.126;5.596;2023-02-05T02:42:11;7.70;99.90
19522;DHT22;9905;52.126;5.596;2023-02-05T02:44:42;7.70;99.90
19522;DHT22;9905;52.126;5.596;2023-02-05T02:47:13;7.70;99.90
19522;DHT22;9905;52.126;5.596;2023-02-05T02:49:44;7.70;99.90
19522;DHT22;9905;52.126;5.596;2023-02-05T02:52:15;7.70;99.90
19522;DHT22;9905;52.126;5.596;2023-02-05T02:54:45;7.70;99.90
19522;DHT22;9905;52.126;5.596;2023-02-05T02:57:14;7.70;99.90
19522;DHT22;9905;52.126;5.596;2023-02-05T02:59:45;7.60;99.90
19522;DHT22;9905;52.126;5.596;2023-02-05T03:02:13;7.70;99.90
19522;DHT22;9905;52.126;5.596;2023-02-05T03:04:44;7.70;99.90
19522;DHT22;9905;52.126;5.596;2023-02-05T03:07:15;7.70;99.90
19522;DHT22;9905;52.126;5.596;2023-02-05T03:09:48;7.60;99.90
19522;DHT22;9905;52.126;5.596;2023-02-05T03:12:17;7.60;99.90
19522;DHT22;9905;52.126;5.596;2023-02-05T03:14:45;7.60;99.90
19522;DHT22;9905;52.126;5.596;2023-02-05T03:17:12;7.60;99.90
19522;DHT22;9905;52.126;5.596;2023-02-05T03:19:43;7.60;99.90
19522;DHT22;9905;52.126;5.596;2023-02-05T03:22:10;7.60;99.90
19522;DHT22;9905;52.126;5.596;2023-02-05T03:24:37;7.60;99.90
19522;DHT22;9905;52.126;5.596;2023-02-05T03:27:04;7.60;99.90
19522;DHT22;9905;52.126;5.596;2023-02-05T03:29:34;7.60;99.90
19522;DHT22;9905;52.126;5.596;2023-02-05T03:32:09;7.50;99.90
19522;DHT22;9905;52.126;5.596;2023-02-05T03:34:45;7.60;99.90
19522;DHT22;9905;52.126;5.596;2023-02-05T03:37:19;7.60;99.90
19522;DHT22;9905;52.126;5.596;2023-02-05T03:39:58;7.60;99.90
19522;DHT22;9905;52.126;5.596;2023-02-05T03:42:35;7.60;99.90
19522;DHT22;9905;52.126;5.596;2023-02-05T03:45:25;7.60;99.90
19522;DHT22;9905;52.126;5.596;2023-02-05T03:48:14;7.50;99.90
19522;DHT22;9905;52.126;5.596;2023-02-05T03:50:50;7.50;99.90
19522;DHT22;9905;52.126;5.596;2023-02-05T03:53:22;7.50;99.90
19522;DHT22;9905;52.126;5.596;2023-02-05T03:55:54;7.50;99.90
19522;DHT22;9905;52.126;5.596;2023-02-05T03:58:28;7.50;99.90
19522;DHT22;9905;52.126;5.596;2023-02-05T04:00:57;7.50;99.90
19522;DHT22;9905;52.126;5.596;2023-02-05T04:03:25;7.50;99.90
19522;DHT22;9905;52.126;5.596;2023-02-05T04:05:52;7.50;99.90
19522;DHT22;9905;52.126;5.596;2023-02-05T04:08:20;7.50;99.90
19522;DHT22;9905;52.126;5.596;2023-02-05T04:10:47;7.50;99.90
19522;DHT22;9905;52.126;5.596;2023-02-05T04:13:14;7.50;99.90
19522;DHT22;9905;52.126;5.596;2023-02-05T04:15:41;7.50;99.90
19522;DHT22;9905;52.126;5.596;2023-02-05T04:18:07;7.50;99.90
19522;DHT22;9905;52.126;5.596;2023-02-05T04:20:35;7.50;99.90
19522;DHT22;9905;52.126;5.596;2023-02-05T04:23:02;7.50;99.90
19522;DHT22;9905;52.126;5.596;2023-02-05T04:25:29;7.50;99.90
19522;DHT22;9905;52.126;5.596;2023-02-05T04:27:56;7.50;99.90
19522;DHT22;9905;52.126;5.596;2023-02-05T04:30:22;7.50;99.90
19522;DHT22;9905;52.126;5.596;2023-02-05T04:32:49;7.50;99.90
19522;DHT22;9905;52.126;5.596;2023-02-05T04:35:16;7.50;99.90
19522;DHT22;9905;52.126;5.596;2023-02-05T04:37:44;7.50;99.90
19522;DHT22;9905;52.126;5.596;2023-02-05T04:40:11;7.50;99.90
19522;DHT22;9905;52.126;5.596;2023-02-05T04:42:38;7.50;99.90
19522;DHT22;9905;52.126;5.596;2023-02-05T04:45:05;7.50;99.90
19522;DHT22;9905;52.126;5.596;2023-02-05T04:47:32;7.50;99.90
19522;DHT22;9905;52.126;5.596;2023-02-05T04:49:59;7.40;99.90
19522;DHT22;9905;52.126;5.596;2023-02-05T04:52:26;7.50;99.90
19522;DHT22;9905;52.126;5.596;2023-02-05T04:54:54;7.40;99.90
19522;DHT22;9905;52.126;5.596;2023-02-05T04:57:21;7.50;99.90
19522;DHT22;9905;52.126;5.596;2023-02-05T04:59:49;7.50;99.90
19522;DHT22;9905;52.126;5.596;2023-02-05T05:02:16;7.50;99.90
19522;DHT22;9905;52.126;5.596;2023-02-05T05:04:42;7.50;99.90
19522;DHT22;9905;52.126;5.596;2023-02-05T05:07:09;7.50;99.90
19522;DHT22;9905;52.126;5.596;2023-02-05T05:09:36;7.50;99.90
19522;DHT22;9905;52.126;5.596;2023-02-05T05:12:05;7.50;99.90
19522;DHT22;9905;52.126;5.596;2023-02-05T05:14:32;7.40;99.90
19522;DHT22;9905;52.126;5.596;2023-02-05T05:16:59;7.40;99.90
19522;DHT22;9905;52.126;5.596;2023-02-05T05:19:26;7.40;99.90
19522;DHT22;9905;52.126;5.596;2023-02-05T05:21:52;7.50;99.90
19522;DHT22;9905;52.126;5.596;2023-02-05T05:24:19;7.40;99.90
19522;DHT22;9905;52.126;5.596;2023-02-05T05:26:46;7.40;99.90
19522;DHT22;9905;52.126;5.596;2023-02-05T05:29:14;7.50;99.90
19522;DHT22;9905;52.126;5.596;2023-02-05T05:31:41;7.40;99.90
19522;DHT22;9905;52.126;5.596;2023-02-05T05:34:08;7.40;99.90
19522;DHT22;9905;52.126;5.596;2023-02-05T05:36:34;7.50;99.90
19522;DHT22;9905;52.126;5.596;2023-02-05T05:39:01;7.40;99.90
19522;DHT22;9905;52.126;5.596;2023-02-05T05:41:42;7.50;99.90
19522;DHT22;9905;52.126;5.596;2023-02-05T05:44:27;7.50;99.90
19522;DHT22;9905;52.126;5.596;2023-02-05T05:46:54;7.50;99.90
19522;DHT22;9905;52.126;5.596;2023-02-05T05:49:21;7.50;99.90
19522;DHT22;9905;52.126;5.596;2023-02-05T05:51:48;7.50;99.90
19522;DHT22;9905;52.126;5.596;2023-02-05T05:54:15;7.50;99.90
19522;DHT22;9905;52.126;5.596;2023-02-05T05:56:41;7.40;99.90
19522;DHT22;9905;52.126;5.596;2023-02-05T05:59:10;7.50;99.90
19522;DHT22;9905;52.126;5.596;2023-02-05T06:01:39;7.40;99.90
19522;DHT22;9905;52.126;5.596;2023-02-05T06:04:06;7.30;99.90
19522;DHT22;9905;52.126;5.596;2023-02-05T06:06:32;7.20;99.90
19522;DHT22;9905;52.126;5.596;2023-02-05T06:08:59;7.20;99.90
19522;DHT22;9905;52.126;5.596;2023-02-05T06:11:26;7.20;99.90
19522;DHT22;9905;52.126;5.596;2023-02-05T06:13:53;7.10;99.90
19522;DHT22;9905;52.126;5.596;2023-02-05T06:16:20;7.10;99.90
19522;DHT22;9905;52.126;5.596;2023-02-05T06:18:48;7.10;99.90
19522;DHT22;9905;52.126;5.596;2023-02-05T06:21:14;7.10;99.90
19522;DHT22;9905;52.126;5.596;2023-02-05T06:23:41;7.00;99.90
19522;DHT22;9905;52.126;5.596;2023-02-05T06:26:08;7.00;99.90
19522;DHT22;9905;52.126;5.596;2023-02-05T06:28:35;6.90;99.90
19522;DHT22;9905;52.126;5.596;2023-02-05T06:31:01;6.90;99.90
19522;DHT22;9905;52.126;5.596;2023-02-05T06:33:28;6.90;99.90
19522;DHT22;9905;52.126;5.596;2023-02-05T06:35:56;6.90;99.90
19522;DHT22;9905;52.126;5.596;2023-02-05T06:38:23;6.90;99.90
19522;DHT22;9905;52.126;5.596;2023-02-05T06:40:50;6.90;99.90
19522;DHT22;9905;52.126;5.596;2023-02-05T06:43:17;6.80;99.90
19522;DHT22;9905;52.126;5.596;2023-02-05T06:45:43;6.80;99.90
19522;DHT22;9905;52.126;5.596;2023-02-05T06:48:10;6.90;99.90
19522;DHT22;9905;52.126;5.596;2023-02-05T06:50:37;6.80;99.90
19522;DHT22;9905;52.126;5.596;2023-02-05T06:53:05;6.80;99.90
19522;DHT22;9905;52.126;5.596;2023-02-05T06:55:32;6.80;99.90
19522;DHT22;9905;52.126;5.596;2023-02-05T06:57:59;6.80;99.90
19522;DHT22;9905;52.126;5.596;2023-02-05T07:00:25;6.80;99.90
19522;DHT22;9905;52.126;5.596;2023-02-05T07:02:52;6.80;99.90
19522;DHT22;9905;52.126;5.596;2023-02-05T07:05:19;6.80;99.90
19522;DHT22;9905;52.126;5.596;2023-02-05T07:07:46;6.80;99.90
19522;DHT22;9905;52.126;5.596;2023-02-05T07:10:14;6.80;99.90
19522;DHT22;9905;52.126;5.596;2023-02-05T07:12:41;6.80;99.90
19522;DHT22;9905;52.126;5.596;2023-02-05T07:15:08;6.80;99.90
19522;DHT22;9905;52.126;5.596;2023-02-05T07:17:35;6.80;99.90
19522;DHT22;9905;52.126;5.596;2023-02-05T07:20:03;6.70;99.90
19522;DHT22;9905;52.126;5.596;2023-02-05T07:22:30;6.80;99.90
19522;DHT22;9905;52.126;5.596;2023-02-05T07:24:57;6.80;99.90
19522;DHT22;9905;52.126;5.596;2023-02-05T07:27:26;6.70;99.90
19522;DHT22;9905;52.126;5.596;2023-02-05T07:29:53;6.70;99.90
19522;DHT22;9905;52.126;5.596;2023-02-05T07:32:19;6.70;99.90
19522;DHT22;9905;52.126;5.596;2023-02-05T07:34:46;6.80;99.90
19522;DHT22;9905;52.126;5.596;2023-02-05T07:37:13;6.70;99.90
19522;DHT22;9905;52.126;5.596;2023-02-05T07:39:40;6.70;99.90
19522;DHT22;9905;52.126;5.596;2023-02-05T07:42:07;6.70;99.90
19522;DHT22;9905;52.126;5.596;2023-02-05T07:44:35;6.70;99.90
19522;DHT22;9905;52.126;5.596;2023-02-05T07:47:02;6.70;99.90
19522;DHT22;9905;52.126;5.596;2023-02-05T07:49:28;6.70;99.90
19522;DHT22;9905;52.126;5.596;2023-02-05T07:51:55;6.70;99.90
19522;DHT22;9905;52.126;5.596;2023-02-05T07:54:22;6.70;99.90
19522;DHT22;9905;52.126;5.596;2023-02-05T07:56:49;6.60;99.90
19522;DHT22;9905;52.126;5.596;2023-02-05T07:59:15;6.60;99.90
19522;DHT22;9905;52.126;5.596;2023-02-05T08:01:43;6.70;99.90
19522;DHT22;9905;52.126;5.596;2023-02-05T08:04:10;6.70;99.90
19522;DHT22;9905;52.126;5.596;2023-02-05T08:06:37;6.70;99.90
19522;DHT22;9905;52.126;5.596;2023-02-05T08:09:04;6.70;99.90
19522;DHT22;9905;52.126;5.596;2023-02-05T08:11:30;6.70;99.90
19522;DHT22;9905;52.126;5.596;2023-02-05T08:13:57;6.70;99.90
19522;DHT22;9905;52.126;5.596;2023-02-05T08:16:24;6.80;99.90
19522;DHT22;9905;52.126;5.596;2023-02-05T08:18:52;6.80;99.90
19522;DHT22;9905;52.126;5.596;2023-02-05T08:21:19;6.80;99.90
19522;DHT22;9905;52.126;5.596;2023-02-05T08:23:47;6.80;99.90
19522;DHT22;9905;52.126;5.596;2023-02-05T08:26:14;6.80;99.90
19522;DHT22;9905;52.126;5.596;2023-02-05T08:28:41;6.90;99.90
19522;DHT22;9905;52.126;5.596;2023-02-05T08:31:09;6.90;99.90
19522;DHT22;9905;52.126;5.596;2023-02-05T08:33:36;6.90;99.90
19522;DHT22;9905;52.126;5.596;2023-02-05T08:36:05;6.90;99.90
19522;DHT22;9905;52.126;5.596;2023-02-05T08:38:32;6.90;99.90
19522;DHT22;9905;52.126;5.596;2023-02-05T08:41:03;6.90;99.90
19522;DHT22;9905;52.126;5.596;2023-02-05T08:43:37;6.90;99.90
19522;DHT22;9905;52.126;5.596;2023-02-05T08:46:04;7.00;99.90
19522;DHT22;9905;52.126;5.596;2023-02-05T08:48:31;7.00;99.90
19522;DHT22;9905;52.126;5.596;2023-02-05T08:50:58;7.00;99.90
19522;DHT22;9905;52.126;5.596;2023-02-05T08:53:26;7.00;99.90
19522;DHT22;9905;52.126;5.596;2023-02-05T08:55:56;7.00;99.90
19522;DHT22;9905;52.126;5.596;2023-02-05T08:58:24;7.00;99.90
19522;DHT22;9905;52.126;5.596;2023-02-05T09:00:51;7.00;99.90
19522;DHT22;9905;52.126;5.596;2023-02-05T09:03:17;7.00;99.90
19522;DHT22;9905;52.126;5.596;2023-02-05T09:05:44;7.00;99.90
19522;DHT22;9905;52.126;5.596;2023-02-05T09:08:11;7.00;99.90
19522;DHT22;9905;52.126;5.596;2023-02-05T09:10:42;7.10;99.90
19522;DHT22;9905;52.126;5.596;2023-02-05T09:13:09;7.10;99.90
19522;DHT22;9905;52.126;5.596;2023-02-05T09:15:40;7.10;99.90
19522;DHT22;9905;52.126;5.596;2023-02-05T09:18:07;7.10;99.90
19522;DHT22;9905;52.126;5.596;2023-02-05T09:20:33;7.20;99.90
19522;DHT22;9905;52.126;5.596;2023-02-05T09:23:01;7.20;99.90
19522;DHT22;9905;52.126;5.596;2023-02-05T09:25:28;7.30;99.90
19522;DHT22;9905;52.126;5.596;2023-02-05T09:27:59;7.30;99.90
19522;DHT22;9905;52.126;5.596;2023-02-05T09:30:26;7.30;99.90
19522;DHT22;9905;52.126;5.596;2023-02-05T09:32:53;7.40;99.90
19522;DHT22;9905;52.126;5.596;2023-02-05T09:35:20;7.50;99.90
19522;DHT22;9905;52.126;5.596;2023-02-05T09:37:46;7.50;99.90
19522;DHT22;9905;52.126;5.596;2023-02-05T09:40:18;7.50;99.90
19522;DHT22;9905;52.126;5.596;2023-02-05T09:42:52;7.50;99.90
19522;DHT22;9905;52.126;5.596;2023-02-05T09:45:35;7.50;99.90
19522;DHT22;9905;52.126;5.596;2023-02-05T09:48:19;7.50;99.90
19522;DHT22;9905;52.126;5.596;2023-02-05T09:50:49;7.50;99.90
19522;DHT22;9905;52.126;5.596;2023-02-05T09:53:18;7.60;99.90
19522;DHT22;9905;52.126;5.596;2023-02-05T09:55:47;7.60;99.90
19522;DHT22;9905;52.126;5.596;2023-02-05T09:58:16;7.60;99.90
19522;DHT22;9905;52.126;5.596;2023-02-05T10:00:46;7.60;99.90
19522;DHT22;9905;52.126;5.596;2023-02-05T10:03:20;7.60;99.90
19522;DHT22;9905;52.126;5.596;2023-02-05T10:06:03;7.70;99.90
19522;DHT22;9905;52.126;5.596;2023-02-05T10:08:39;7.70;99.90
19522;DHT22;9905;52.126;5.596;2023-02-05T10:11:16;7.80;99.90
19522;DHT22;9905;52.126;5.596;2023-02-05T10:13:45;7.80;99.90
19522;DHT22;9905;52.126;5.596;2023-02-05T10:16:36;7.80;99.90
19522;DHT22;9905;52.126;5.596;2023-02-05T10:19:20;7.90;99.90
19522;DHT22;9905;52.126;5.596;2023-02-05T10:22:05;8.00;99.90
19522;DHT22;9905;52.126;5.596;2023-02-05T10:24:54;8.00;99.90
19522;DHT22;9905;52.126;5.596;2023-02-05T10:27:34;7.90;99.90
19522;DHT22;9905;52.126;5.596;2023-02-05T10:30:09;7.90;99.90
19522;DHT22;9905;52.126;5.596;2023-02-05T10:32:48;8.00;99.90
19522;DHT22;9905;52.126;5.596;2023-02-05T10:35:23;8.00;99.90
19522;DHT22;9905;52.126;5.596;2023-02-05T10:37:52;8.00;99.90
19522;DHT22;9905;52.126;5.596;2023-02-05T10:40:22;8.10;99.90
19522;DHT22;9905;52.126;5.596;2023-02-05T10:42:53;8.10;99.90
19522;DHT22;9905;52.126;5.596;2023-02-05T10:45:23;8.20;99.90
19522;DHT22;9905;52.126;5.596;2023-02-05T10:50:52;8.30;99.90
19522;DHT22;9905;52.126;5.596;2023-02-05T10:53:21;8.40;99.90
19522;DHT22;9905;52.126;5.596;2023-02-05T10:55:49;8.40;99.90
19522;DHT22;9905;52.126;5.596;2023-02-05T10:58:27;8.40;99.90
19522;DHT22;9905;52.126;5.596;2023-02-05T11:00:57;8.40;99.90
19522;DHT22;9905;52.126;5.596;2023-02-05T11:03:25;8.40;99.90
19522;DHT22;9905;52.126;5.596;2023-02-05T11:05:52;8.50;99.90
19522;DHT22;9905;52.126;5.596;2023-02-05T11:08:34;8.40;99.90
19522;DHT22;9905;52.126;5.596;2023-02-05T11:11:01;8.50;99.90
19522;DHT22;9905;52.126;5.596;2023-02-05T11:13:29;8.50;99.90
19522;DHT22;9905;52.126;5.596;2023-02-05T11:15:58;8.50;99.90
19522;DHT22;9905;52.126;5.596;2023-02-05T11:18:29;8.50;99.90
19522;DHT22;9905;52.126;5.596;2023-02-05T11:20:59;8.40;99.90
19522;DHT22;9905;52.126;5.596;2023-02-05T11:23:28;8.50;99.90
19522;DHT22;9905;52.126;5.596;2023-02-05T11:25:58;8.50;99.90
19522;DHT22;9905;52.126;5.596;2023-02-05T11:28:27;8.50;99.90
19522;DHT22;9905;52.126;5.596;2023-02-05T11:30:55;8.50;99.90
19522;DHT22;9905;52.126;5.596;2023-02-05T11:33:28;8.50;99.90
19522;DHT22;9905;52.126;5.596;2023-02-05T11:35:58;8.60;99.90
19522;DHT22;9905;52.126;5.596;2023-02-05T11:38:30;8.60;99.90
19522;DHT22;9905;52.126;5.596;2023-02-05T11:41:00;8.60;99.90
19522;DHT22;9905;52.126;5.596;2023-02-05T11:43:30;8.60;99.90
19522;DHT22;9905;52.126;5.596;2023-02-05T11:45:58;8.60;99.90
19522;DHT22;9905;52.126;5.596;2023-02-05T11:48:31;8.60;99.90
19522;DHT22;9905;52.126;5.596;2023-02-05T11:51:00;8.60;99.90
19522;DHT22;9905;52.126;5.596;2023-02-05T11:53:27;8.60;99.90
19522;DHT22;9905;52.126;5.596;2023-02-05T11:55:59;8.60;99.90
19522;DHT22;9905;52.126;5.596;2023-02-05T11:58:28;8.60;99.90
19522;DHT22;9905;52.126;5.596;2023-02-05T12:00:57;8.60;99.90
19522;DHT22;9905;52.126;5.596;2023-02-05T12:03:30;8.60;99.90
19522;DHT22;9905;52.126;5.596;2023-02-05T12:06:13;8.50;99.90
19522;DHT22;9905;52.126;5.596;2023-02-05T12:08:46;8.60;99.90
19522;DHT22;9905;52.126;5.596;2023-02-05T12:11:23;8.60;99.90
19522;DHT22;9905;52.126;5.596;2023-02-05T12:14:00;8.70;99.90
19522;DHT22;9905;52.126;5.596;2023-02-05T12:16:41;8.70;99.90
19522;DHT22;9905;52.126;5.596;2023-02-05T12:19:16;8.70;99.90
19522;DHT22;9905;52.126;5.596;2023-02-05T12:21:48;8.70;99.90
19522;DHT22;9905;52.126;5.596;2023-02-05T12:24:48;8.70;99.90
19522;DHT22;9905;52.126;5.596;2023-02-05T12:27:35;8.70;99.90
19522;DHT22;9905;52.126;5.596;2023-02-05T12:30:15;8.80;99.90
19522;DHT22;9905;52.126;5.596;2023-02-05T12:32:53;8.80;99.90
19522;DHT22;9905;52.126;5.596;2023-02-05T12:35:33;8.80;99.90
19522;DHT22;9905;52.126;5.596;2023-02-05T12:38:11;8.80;99.90
19522;DHT22;9905;52.126;5.596;2023-02-05T12:40:50;8.90;99.90
19522;DHT22;9905;52.126;5.596;2023-02-05T12:43:28;8.90;99.90
19522;DHT22;9905;52.126;5.596;2023-02-05T12:46:04;8.90;99.90
19522;DHT22;9905;52.126;5.596;2023-02-05T12:48:46;9.00;99.90
19522;DHT22;9905;52.126;5.596;2023-02-05T12:51:30;9.00;99.90
19522;DHT22;9905;52.126;5.596;2023-02-05T12:54:13;9.00;99.90
19522;DHT22;9905;52.126;5.596;2023-02-05T12:56:53;9.00;99.90
19522;DHT22;9905;52.126;5.596;2023-02-05T12:59:30;9.10;99.90
19522;DHT22;9905;52.126;5.596;2023-02-05T13:02:03;9.10;99.90
19522;DHT22;9905;52.126;5.596;2023-02-05T13:04:35;9.10;99.90
19522;DHT22;9905;52.126;5.596;2023-02-05T13:07:08;9.10;99.90
19522;DHT22;9905;52.126;5.596;2023-02-05T13:09:42;9.10;99.90
19522;DHT22;9905;52.126;5.596;2023-02-05T13:12:12;9.10;99.90
19522;DHT22;9905;52.126;5.596;2023-02-05T13:14:43;9.10;99.90
19522;DHT22;9905;52.126;5.596;2023-02-05T13:17:14;9.10;99.90
19522;DHT22;9905;52.126;5.596;2023-02-05T13:19:44;9.10;99.90
19522;DHT22;9905;52.126;5.596;2023-02-05T13:22:18;9.10;99.90
19522;DHT22;9905;52.126;5.596;2023-02-05T13:25:12;9.20;99.90
19522;DHT22;9905;52.126;5.596;2023-02-05T13:28:22;9.20;99.90
19522;DHT22;9905;52.126;5.596;2023-02-05T13:31:10;9.30;99.90
19522;DHT22;9905;52.126;5.596;2023-02-05T13:33:38;9.30;99.90
19522;DHT22;9905;52.126;5.596;2023-02-05T13:36:18;9.30;99.90
19522;DHT22;9905;52.126;5.596;2023-02-05T13:39:04;9.30;99.90
19522;DHT22;9905;52.126;5.596;2023-02-05T13:42:00;9.30;99.90
19522;DHT22;9905;52.126;5.596;2023-02-05T13:47:43;9.40;99.90
19522;DHT22;9905;52.126;5.596;2023-02-05T13:50:44;9.40;99.90
19522;DHT22;9905;52.126;5.596;2023-02-05T13:53:23;9.40;99.90
19522;DHT22;9905;52.126;5.596;2023-02-05T13:58:53;9.50;99.90
19522;DHT22;9905;52.126;5.596;2023-02-05T14:01:23;9.50;99.90
19522;DHT22;9905;52.126;5.596;2023-02-05T14:03:56;9.50;99.90
19522;DHT22;9905;52.126;5.596;2023-02-05T14:06:28;9.50;99.90
19522;DHT22;9905;52.126;5.596;2023-02-05T14:09:00;9.50;99.90
19522;DHT22;9905;52.126;5.596;2023-02-05T14:11:27;9.50;99.90
19522;DHT22;9905;52.126;5.596;2023-02-05T14:14:21;9.40;99.90
19522;DHT22;9905;52.126;5.596;2023-02-05T14:16:48;9.40;99.90
19522;DHT22;9905;52.126;5.596;2023-02-05T14:19:18;9.40;99.90
19522;DHT22;9905;52.126;5.596;2023-02-05T14:22:08;9.40;99.90
19522;DHT22;9905;52.126;5.596;2023-02-05T14:24:41;9.40;99.90
19522;DHT22;9905;52.126;5.596;2023-02-05T14:30:48;9.30;99.90
19522;DHT22;9905;52.126;5.596;2023-02-05T14:33:33;9.30;99.90
19522;DHT22;9905;52.126;5.596;2023-02-05T14:36:33;9.30;99.90
19522;DHT22;9905;52.126;5.596;2023-02-05T14:39:24;9.20;99.90
19522;DHT22;9905;52.126;5.596;2023-02-05T14:41:53;9.20;99.90
19522;DHT22;9905;52.126;5.596;2023-02-05T14:44:26;9.20;99.90
19522;DHT22;9905;52.126;5.596;2023-02-05T14:47:00;9.20;99.90
19522;DHT22;9905;52.126;5.596;2023-02-05T14:49:33;9.10;99.90
19522;DHT22;9905;52.126;5.596;2023-02-05T14:52:03;9.20;99.90
19522;DHT22;9905;52.126;5.596;2023-02-05T14:54:41;9.00;99.90
19522;DHT22;9905;52.126;5.596;2023-02-05T14:57:14;9.00;99.90
19522;DHT22;9905;52.126;5.596;2023-02-05T14:59:50;9.00;99.90
19522;DHT22;9905;52.126;5.596;2023-02-05T15:05:39;8.90;99.90
19522;DHT22;9905;52.126;5.596;2023-02-05T15:08:11;8.90;99.90
19522;DHT22;9905;52.126;5.596;2023-02-05T15:10:46;8.90;99.90
19522;DHT22;9905;52.126;5.596;2023-02-05T15:13:15;8.90;99.90
19522;DHT22;9905;52.126;5.596;2023-02-05T15:16:06;8.80;99.90
19522;DHT22;9905;52.126;5.596;2023-02-05T15:18:37;8.80;99.90
19522;DHT22;9905;52.126;5.596;2023-02-05T15:21:06;8.80;99.90
19522;DHT22;9905;52.126;5.596;2023-02-05T15:23:39;8.80;99.90
19522;DHT22;9905;52.126;5.596;2023-02-05T15:26:13;8.70;99.90
19522;DHT22;9905;52.126;5.596;2023-02-05T15:28:55;8.70;99.90
19522;DHT22;9905;52.126;5.596;2023-02-05T15:31:29;8.70;99.90
19522;DHT22;9905;52.126;5.596;2023-02-05T15:34:05;8.60;99.90
19522;DHT22;9905;52.126;5.596;2023-02-05T15:36:40;8.60;99.90
19522;DHT22;9905;52.126;5.596;2023-02-05T15:39:16;8.50;99.90
19522;DHT22;9905;52.126;5.596;2023-02-05T15:41:46;8.50;99.90
19522;DHT22;9905;52.126;5.596;2023-02-05T15:44:21;8.40;99.90
19522;DHT22;9905;52.126;5.596;2023-02-05T15:46:49;8.40;99.90
19522;DHT22;9905;52.126;5.596;2023-02-05T15:49:18;8.40;99.90
19522;DHT22;9905;52.126;5.596;2023-02-05T15:51:46;8.40;99.90
19522;DHT22;9905;52.126;5.596;2023-02-05T15:54:18;8.40;99.90
19522;DHT22;9905;52.126;5.596;2023-02-05T15:56:48;8.30;99.90
19522;DHT22;9905;52.126;5.596;2023-02-05T15:59:19;8.30;99.90
19522;DHT22;9905;52.126;5.596;2023-02-05T16:01:49;8.30;99.90
19522;DHT22;9905;52.126;5.596;2023-02-05T16:04:26;8.20;99.90
19522;DHT22;9905;52.126;5.596;2023-02-05T16:06:53;8.20;99.90
19522;DHT22;9905;52.126;5.596;2023-02-05T16:09:21;8.20;99.90
19522;DHT22;9905;52.126;5.596;2023-02-05T16:11:49;8.10;99.90
19522;DHT22;9905;52.126;5.596;2023-02-05T16:14:18;8.10;99.90
19522;DHT22;9905;52.126;5.596;2023-02-05T16:16:59;8.00;99.90
19522;DHT22;9905;52.126;5.596;2023-02-05T16:19:32;8.00;99.90
19522;DHT22;9905;52.126;5.596;2023-02-05T16:22:04;7.90;99.90
19522;DHT22;9905;52.126;5.596;2023-02-05T16:24:41;7.90;99.90
19522;DHT22;9905;52.126;5.596;2023-02-05T16:27:12;7.80;99.90
19522;DHT22;9905;52.126;5.596;2023-02-05T16:29:44;7.80;99.90
19522;DHT22;9905;52.126;5.596;2023-02-05T16:32:17;7.70;99.90
19522;DHT22;9905;52.126;5.596;2023-02-05T16:34:47;7.70;99.90
19522;DHT22;9905;52.126;5.596;2023-02-05T16:37:16;7.70;99.90
19522;DHT22;9905;52.126;5.596;2023-02-05T16:39:48;7.70;99.90
19522;DHT22;9905;52.126;5.596;2023-02-05T16:42:29;7.70;99.90